Time,TemperatureF,DewpointF,PressureIn,WindDirection,WindDirectionDegrees,WindSpeedMPH,WindSpeedGustMPH,Humidity,HourlyPrecipIn,Conditions,Clouds,dailyrainin,SoftwareType,DateUTC
2017-01-16 00:06:00,12.0,4.0,-100.00,WNW,303,4.0,7.0,71,-99.99,,,-99.99,,2017-01-16 07:06:00,
2017-01-16 00:15:00,12.0,4.0,-100.00,WNW,303,4.0,7.0,71,-99.99,,,-99.99,,2017-01-16 07:15:00,
2017-01-16 00:35:00,12.0,5.0,-100.00,SW,219,3.0,7.0,72,-99.99,,,-99.99,,2017-01-16 07:35:00,
2017-01-16 00:49:00,8.0,2.0,-100.00,South,185,2.0,6.0,75,-99.99,,,-99.99,,2017-01-16 07:49:00,
2017-01-16 00:59:00,8.0,2.0,-100.00,South,185,2.0,6.0,75,-99.99,,,-99.99,,2017-01-16 07:59:00,
2017-01-16 01:07:00,11.0,4.0,-100.00,NW,307,1.0,4.0,74,-99.99,,,-99.99,,2017-01-16 08:07:00,
2017-01-16 01:15:00,11.0,4.0,-100.00,NW,307,1.0,4.0,74,-99.99,,,-99.99,,2017-01-16 08:15:00,
2017-01-16 01:47:00,10.0,4.0,-100.00,West,274,2.0,4.0,74,-99.99,,,-99.99,,2017-01-16 08:47:00,
2017-01-16 02:07:00,10.0,3.0,-100.00,West,262,2.0,4.0,73,-99.99,,,-99.99,,2017-01-16 09:07:00,
2017-01-16 02:15:00,10.0,3.0,-100.00,West,262,2.0,4.0,73,-99.99,,,-99.99,,2017-01-16 09:15:00,
2017-01-16 03:06:00,9.0,2.0,-100.00,West,266,6.0,7.0,73,-99.99,,,-99.99,,2017-01-16 10:06:00,
2017-01-16 03:16:00,9.0,2.0,-100.00,West,266,6.0,7.0,73,-99.99,,,-99.99,,2017-01-16 10:16:00,
2017-01-16 04:07:00,11.0,4.0,-100.00,West,268,3.0,7.0,74,-99.99,,,-99.99,,2017-01-16 11:07:00,
2017-01-16 04:16:00,11.0,4.0,-100.00,West,268,3.0,7.0,74,-99.99,,,-99.99,,2017-01-16 11:16:00,
2017-01-16 04:58:00,10.0,3.0,-100.00,SW,232,11.0,16.0,74,-99.99,,,-99.99,,2017-01-16 11:58:00,
2017-01-16 05:06:00,7.0,2.0,-100.00,WSW,238,2.0,12.0,77,-99.99,,,-99.99,,2017-01-16 12:06:00,
2017-01-16 05:27:00,7.0,2.0,-100.00,WSW,238,2.0,12.0,77,-99.99,,,-99.99,,2017-01-16 12:27:00,
2017-01-16 05:49:00,9.0,3.0,-100.00,WNW,291,2.0,6.0,75,-99.99,,,-99.99,,2017-01-16 12:49:00,
2017-01-16 06:07:00,9.0,3.0,-100.00,West,273,5.0,9.0,75,-99.99,,,-99.99,,2017-01-16 13:07:00,
2017-01-16 06:14:00,9.0,3.0,-100.00,West,273,5.0,9.0,75,-99.99,,,-99.99,,2017-01-16 13:14:00,
2017-01-16 06:37:00,7.0,2.0,-100.00,WSW,239,7.0,11.0,78,-99.99,,,-99.99,,2017-01-16 13:37:00,
2017-01-16 06:48:00,6.0,1.0,-100.00,WSW,245,-999.9,-999.0,78,-99.99,,,-99.99,,2017-01-16 13:48:00,
2017-01-16 07:06:00,6.0,1.0,-100.00,WSW,253,10.0,11.0,78,-99.99,,,-99.99,,2017-01-16 14:06:00,
2017-01-16 07:14:00,6.0,1.0,-100.00,WSW,253,10.0,11.0,78,-99.99,,,-99.99,,2017-01-16 14:14:00,
2017-01-16 07:35:00,6.0,0.0,-100.00,WSW,252,9.0,11.0,79,-99.99,,,-99.99,,2017-01-16 14:35:00,
2017-01-16 07:47:00,6.0,2.0,-100.00,West,259,10.0,-999.0,80,-99.99,,,-99.99,,2017-01-16 14:47:00,
2017-01-16 07:57:00,6.0,2.0,-100.00,West,259,10.0,11.0,80,-99.99,,,-99.99,,2017-01-16 14:57:00,
2017-01-16 08:05:00,6.0,1.0,-100.00,WSW,255,6.0,11.0,80,-99.99,,,-99.99,,2017-01-16 15:05:00,
2017-01-16 08:15:00,6.0,1.0,-100.00,WSW,255,6.0,11.0,80,-99.99,,,-99.99,,2017-01-16 15:15:00,
2017-01-16 08:48:00,9.0,3.0,-100.00,WSW,257,9.0,11.0,77,-99.99,,,-99.99,,2017-01-16 15:48:00,
2017-01-16 09:05:00,9.0,3.0,-100.00,WSW,241,7.0,9.0,77,-99.99,,,-99.99,,2017-01-16 16:05:00,
2017-01-16 09:16:00,9.0,3.0,-100.00,WSW,241,7.0,9.0,77,-99.99,,,-99.99,,2017-01-16 16:16:00,
2017-01-16 10:07:00,14.0,7.0,-100.00,WSW,250,7.0,9.0,73,-99.99,,,-99.99,,2017-01-16 17:07:00,
2017-01-16 10:16:00,14.0,7.0,-100.00,WSW,250,7.0,9.0,73,-99.99,,,-99.99,,2017-01-16 17:16:00,
2017-01-16 10:49:00,16.0,8.0,-100.00,WSW,250,7.0,9.0,71,-99.99,,,-99.99,,2017-01-16 17:49:00,
2017-01-16 11:17:00,16.0,9.0,-100.00,SW,236,5.0,9.0,74,-99.99,,,-99.99,,2017-01-16 18:17:00,
2017-01-16 11:58:00,18.0,10.0,-100.00,WSW,242,6.0,-999.0,71,-99.99,,,-99.99,,2017-01-16 18:58:00,
2017-01-16 12:07:00,18.0,11.0,-100.00,WSW,241,7.0,10.0,72,-99.99,,,-99.99,,2017-01-16 19:07:00,
2017-01-16 12:14:00,18.0,11.0,-100.00,WSW,241,7.0,10.0,72,-99.99,,,-99.99,,2017-01-16 19:14:00,